sensor_id;sensor_type;location;lat;lon;timestamp;P1;durP1;ratioP1;P2;durP2;ratioP2
17024;SDS011;8629;42.496;25.620;2023-09-12T00:01:56;1.87;;;1.67;;
17024;SDS011;8629;42.496;25.620;2023-09-12T00:04:22;2.70;;;1.50;;
17024;SDS011;8629;42.496;25.620;2023-09-12T00:06:49;2.77;;;1.43;;
17024;SDS011;8629;42.496;25.620;2023-09-12T00:09:16;2.30;;;1.37;;
17024;SDS011;8629;42.496;25.620;2023-09-12T00:11:43;1.90;;;1.60;;
17024;SDS011;8629;42.496;25.620;2023-09-12T00:14:09;1.40;;;1.30;;
17024;SDS011;8629;42.496;25.620;2023-09-12T00:16:41;4.27;;;1.60;;
17024;SDS011;8629;42.496;25.620;2023-09-12T00:19:09;2.30;;;1.37;;
17024;SDS011;8629;42.496;25.620;2023-09-12T00:21:36;9.77;;;1.63;;
17024;SDS011;8629;42.496;25.620;2023-09-12T00:24:03;1.70;;;1.60;;
17024;SDS011;8629;42.496;25.620;2023-09-12T00:26:30;1.77;;;1.50;;
17024;SDS011;8629;42.496;25.620;2023-09-12T00:28:58;3.73;;;1.60;;
17024;SDS011;8629;42.496;25.620;2023-09-12T00:31:25;11.50;;;2.40;;
17024;SDS011;8629;42.496;25.620;2023-09-12T00:33:51;2.00;;;1.90;;
17024;SDS011;8629;42.496;25.620;2023-09-12T00:36:20;3.77;;;1.43;;
17024;SDS011;8629;42.496;25.620;2023-09-12T00:38:46;9.90;;;2.03;;
17024;SDS011;8629;42.496;25.620;2023-09-12T00:41:13;1.40;;;1.30;;
17024;SDS011;8629;42.496;25.620;2023-09-12T00:43:40;2.87;;;1.80;;
17024;SDS011;8629;42.496;25.620;2023-09-12T00:46:07;1.77;;;1.67;;
17024;SDS011;8629;42.496;25.620;2023-09-12T00:48:32;1.60;;;1.30;;
17024;SDS011;8629;42.496;25.620;2023-09-12T00:51:00;1.77;;;1.67;;
17024;SDS011;8629;42.496;25.620;2023-09-12T00:53:29;1.70;;;1.40;;
17024;SDS011;8629;42.496;25.620;2023-09-12T00:55:57;2.00;;;1.40;;
17024;SDS011;8629;42.496;25.620;2023-09-12T00:58:24;6.87;;;2.00;;
17024;SDS011;8629;42.496;25.620;2023-09-12T01:00:51;2.23;;;1.40;;
17024;SDS011;8629;42.496;25.620;2023-09-12T01:03:18;1.33;;;1.20;;
17024;SDS011;8629;42.496;25.620;2023-09-12T01:05:45;2.00;;;1.57;;
17024;SDS011;8629;42.496;25.620;2023-09-12T01:08:12;4.40;;;1.53;;
17024;SDS011;8629;42.496;25.620;2023-09-12T01:10:40;1.60;;;1.50;;
17024;SDS011;8629;42.496;25.620;2023-09-12T01:13:11;2.43;;;1.63;;
17024;SDS011;8629;42.496;25.620;2023-09-12T01:15:38;1.60;;;1.50;;
17024;SDS011;8629;42.496;25.620;2023-09-12T01:18:05;2.10;;;1.40;;
17024;SDS011;8629;42.496;25.620;2023-09-12T01:20:32;1.37;;;1.27;;
17024;SDS011;8629;42.496;25.620;2023-09-12T01:23:21;1.60;;;1.50;;
17024;SDS011;8629;42.496;25.620;2023-09-12T01:26:03;1.90;;;1.80;;
17024;SDS011;8629;42.496;25.620;2023-09-12T01:28:45;2.27;;;2.07;;
17024;SDS011;8629;42.496;25.620;2023-09-12T01:31:12;3.60;;;1.60;;
17024;SDS011;8629;42.496;25.620;2023-09-12T01:33:39;1.70;;;1.60;;
17024;SDS011;8629;42.496;25.620;2023-09-12T01:36:06;1.90;;;1.50;;
17024;SDS011;8629;42.496;25.620;2023-09-12T01:38:34;2.17;;;1.67;;
17024;SDS011;8629;42.496;25.620;2023-09-12T01:41:01;1.60;;;1.50;;
17024;SDS011;8629;42.496;25.620;2023-09-12T01:43:28;1.87;;;1.63;;
17024;SDS011;8629;42.496;25.620;2023-09-12T01:45:59;1.80;;;1.70;;
17024;SDS011;8629;42.496;25.620;2023-09-12T01:48:26;2.20;;;1.50;;
17024;SDS011;8629;42.496;25.620;2023-09-12T01:50:58;1.50;;;1.40;;
17024;SDS011;8629;42.496;25.620;2023-09-12T01:53:25;1.70;;;1.60;;
17024;SDS011;8629;42.496;25.620;2023-09-12T01:55:52;1.63;;;1.53;;
17024;SDS011;8629;42.496;25.620;2023-09-12T01:58:19;1.73;;;1.60;;
17024;SDS011;8629;42.496;25.620;2023-09-12T02:00:46;1.67;;;1.57;;
17024;SDS011;8629;42.496;25.620;2023-09-12T02:03:14;1.97;;;1.73;;
17024;SDS011;8629;42.496;25.620;2023-09-12T02:05:41;1.93;;;1.73;;
17024;SDS011;8629;42.496;25.620;2023-09-12T02:08:08;2.03;;;1.73;;
17024;SDS011;8629;42.496;25.620;2023-09-12T02:10:35;3.63;;;1.73;;
17024;SDS011;8629;42.496;25.620;2023-09-12T02:13:01;18.47;;;4.37;;
17024;SDS011;8629;42.496;25.620;2023-09-12T02:15:28;14.97;;;2.30;;
17024;SDS011;8629;42.496;25.620;2023-09-12T02:17:55;1.60;;;1.50;;
17024;SDS011;8629;42.496;25.620;2023-09-12T02:20:23;1.63;;;1.53;;
17024;SDS011;8629;42.496;25.620;2023-09-12T02:22:50;1.87;;;1.73;;
17024;SDS011;8629;42.496;25.620;2023-09-12T02:25:17;2.50;;;1.40;;
17024;SDS011;8629;42.496;25.620;2023-09-12T02:27:44;1.60;;;1.50;;
17024;SDS011;8629;42.496;25.620;2023-09-12T02:30:10;3.10;;;1.40;;
17024;SDS011;8629;42.496;25.620;2023-09-12T02:32:37;1.80;;;1.70;;
17024;SDS011;8629;42.496;25.620;2023-09-12T02:35:04;3.27;;;1.70;;
17024;SDS011;8629;42.496;25.620;2023-09-12T02:37:32;1.93;;;1.70;;
17024;SDS011;8629;42.496;25.620;2023-09-12T02:40:00;1.53;;;1.20;;
17024;SDS011;8629;42.496;25.620;2023-09-12T02:42:27;1.67;;;1.50;;
17024;SDS011;8629;42.496;25.620;2023-09-12T02:44:53;2.07;;;1.97;;
17024;SDS011;8629;42.496;25.620;2023-09-12T02:47:20;1.57;;;1.47;;
17024;SDS011;8629;42.496;25.620;2023-09-12T02:49:47;1.53;;;1.43;;
17024;SDS011;8629;42.496;25.620;2023-09-12T02:52:13;3.47;;;1.87;;
17024;SDS011;8629;42.496;25.620;2023-09-12T02:54:42;1.40;;;1.30;;
17024;SDS011;8629;42.496;25.620;2023-09-12T02:57:08;2.03;;;1.90;;
17024;SDS011;8629;42.496;25.620;2023-09-12T02:59:35;1.33;;;1.23;;
17024;SDS011;8629;42.496;25.620;2023-09-12T03:02:02;1.93;;;1.70;;
17024;SDS011;8629;42.496;25.620;2023-09-12T03:04:29;1.43;;;1.33;;
17024;SDS011;8629;42.496;25.620;2023-09-12T03:06:56;3.20;;;1.80;;
17024;SDS011;8629;42.496;25.620;2023-09-12T03:09:23;1.60;;;1.50;;
17024;SDS011;8629;42.496;25.620;2023-09-12T03:11:51;7.70;;;2.23;;
17024;SDS011;8629;42.496;25.620;2023-09-12T03:14:17;4.70;;;1.70;;
17024;SDS011;8629;42.496;25.620;2023-09-12T03:16:44;3.53;;;1.53;;
17024;SDS011;8629;42.496;25.620;2023-09-12T03:19:11;2.23;;;1.63;;
17024;SDS011;8629;42.496;25.620;2023-09-12T03:21:39;2.13;;;1.60;;
17024;SDS011;8629;42.496;25.620;2023-09-12T03:24:06;3.10;;;1.40;;
17024;SDS011;8629;42.496;25.620;2023-09-12T03:26:33;3.13;;;1.60;;
17024;SDS011;8629;42.496;25.620;2023-09-12T03:29:02;2.00;;;1.50;;
17024;SDS011;8629;42.496;25.620;2023-09-12T03:31:29;1.97;;;1.80;;
17024;SDS011;8629;42.496;25.620;2023-09-12T03:33:56;1.93;;;1.83;;
17024;SDS011;8629;42.496;25.620;2023-09-12T03:36:23;5.63;;;1.97;;
17024;SDS011;8629;42.496;25.620;2023-09-12T03:38:50;2.67;;;1.50;;
17024;SDS011;8629;42.496;25.620;2023-09-12T03:41:17;1.60;;;1.50;;
17024;SDS011;8629;42.496;25.620;2023-09-12T03:43:43;2.30;;;1.50;;
17024;SDS011;8629;42.496;25.620;2023-09-12T03:46:11;2.07;;;1.70;;
17024;SDS011;8629;42.496;25.620;2023-09-12T03:48:38;2.03;;;1.57;;
17024;SDS011;8629;42.496;25.620;2023-09-12T03:51:05;1.57;;;1.47;;
17024;SDS011;8629;42.496;25.620;2023-09-12T03:53:32;1.53;;;1.43;;
17024;SDS011;8629;42.496;25.620;2023-09-12T03:55:59;2.17;;;1.60;;
17024;SDS011;8629;42.496;25.620;2023-09-12T03:58:26;1.50;;;1.40;;
17024;SDS011;8629;42.496;25.620;2023-09-12T04:00:53;1.60;;;1.50;;
17024;SDS011;8629;42.496;25.620;2023-09-12T04:03:21;3.83;;;1.60;;
17024;SDS011;8629;42.496;25.620;2023-09-12T04:05:48;1.33;;;1.23;;
17024;SDS011;8629;42.496;25.620;2023-09-12T04:08:16;2.70;;;1.67;;
17024;SDS011;8629;42.496;25.620;2023-09-12T04:10:46;4.53;;;2.37;;
17024;SDS011;8629;42.496;25.620;2023-09-12T04:13:12;7.90;;;3.10;;
17024;SDS011;8629;42.496;25.620;2023-09-12T04:15:40;2.00;;;1.57;;
17024;SDS011;8629;42.496;25.620;2023-09-12T04:18:07;1.50;;;1.40;;
17024;SDS011;8629;42.496;25.620;2023-09-12T04:20:35;1.40;;;1.30;;
17024;SDS011;8629;42.496;25.620;2023-09-12T04:23:02;2.07;;;1.73;;
17024;SDS011;8629;42.496;25.620;2023-09-12T04:25:29;2.07;;;1.90;;
17024;SDS011;8629;42.496;25.620;2023-09-12T04:27:56;2.00;;;1.80;;
17024;SDS011;8629;42.496;25.620;2023-09-12T04:30:23;2.20;;;2.00;;
17024;SDS011;8629;42.496;25.620;2023-09-12T04:32:50;3.03;;;2.73;;
17024;SDS011;8629;42.496;25.620;2023-09-12T04:35:17;1.60;;;1.50;;
17024;SDS011;8629;42.496;25.620;2023-09-12T04:37:46;5.40;;;2.17;;
17024;SDS011;8629;42.496;25.620;2023-09-12T04:40:12;6.13;;;2.07;;
17024;SDS011;8629;42.496;25.620;2023-09-12T04:42:39;5.73;;;2.83;;
17024;SDS011;8629;42.496;25.620;2023-09-12T04:45:06;1.80;;;1.70;;
17024;SDS011;8629;42.496;25.620;2023-09-12T04:47:33;2.83;;;2.00;;
17024;SDS011;8629;42.496;25.620;2023-09-12T04:50:00;10.43;;;2.80;;
17024;SDS011;8629;42.496;25.620;2023-09-12T04:52:27;4.93;;;2.10;;
17024;SDS011;8629;42.496;25.620;2023-09-12T04:54:55;3.00;;;2.63;;
17024;SDS011;8629;42.496;25.620;2023-09-12T04:57:22;3.73;;;2.90;;
17024;SDS011;8629;42.496;25.620;2023-09-12T04:59:49;5.07;;;2.80;;
17024;SDS011;8629;42.496;25.620;2023-09-12T05:02:17;3.67;;;2.53;;
17024;SDS011;8629;42.496;25.620;2023-09-12T05:04:44;3.27;;;2.47;;
17024;SDS011;8629;42.496;25.620;2023-09-12T05:07:10;3.10;;;2.70;;
17024;SDS011;8629;42.496;25.620;2023-09-12T05:09:37;3.73;;;2.63;;
17024;SDS011;8629;42.496;25.620;2023-09-12T05:12:06;2.30;;;2.10;;
17024;SDS011;8629;42.496;25.620;2023-09-12T05:14:32;3.40;;;2.40;;
17024;SDS011;8629;42.496;25.620;2023-09-12T05:17:00;3.00;;;1.70;;
17024;SDS011;8629;42.496;25.620;2023-09-12T05:19:29;6.07;;;3.43;;
17024;SDS011;8629;42.496;25.620;2023-09-12T05:21:56;2.60;;;2.40;;
17024;SDS011;8629;42.496;25.620;2023-09-12T05:24:23;2.47;;;2.27;;
17024;SDS011;8629;42.496;25.620;2023-09-12T05:26:50;2.60;;;2.10;;
17024;SDS011;8629;42.496;25.620;2023-09-12T05:29:18;4.93;;;2.20;;
17024;SDS011;8629;42.496;25.620;2023-09-12T05:31:45;2.27;;;2.07;;
17024;SDS011;8629;42.496;25.620;2023-09-12T05:34:11;4.03;;;3.63;;
17024;SDS011;8629;42.496;25.620;2023-09-12T05:36:39;9.77;;;5.17;;
17024;SDS011;8629;42.496;25.620;2023-09-12T05:39:06;9.60;;;3.67;;
17024;SDS011;8629;42.496;25.620;2023-09-12T05:41:33;7.13;;;3.93;;
17024;SDS011;8629;42.496;25.620;2023-09-12T05:44:00;7.07;;;3.40;;
17024;SDS011;8629;42.496;25.620;2023-09-12T05:46:28;7.30;;;2.87;;
17024;SDS011;8629;42.496;25.620;2023-09-12T05:48:54;2.50;;;2.30;;
17024;SDS011;8629;42.496;25.620;2023-09-12T05:51:21;8.07;;;1.97;;
17024;SDS011;8629;42.496;25.620;2023-09-12T05:53:48;3.70;;;1.77;;
17024;SDS011;8629;42.496;25.620;2023-09-12T05:56:16;2.07;;;1.63;;
17024;SDS011;8629;42.496;25.620;2023-09-12T05:58:46;1.90;;;1.60;;
17024;SDS011;8629;42.496;25.620;2023-09-12T06:01:15;1.97;;;1.60;;
17024;SDS011;8629;42.496;25.620;2023-09-12T06:03:43;1.87;;;1.77;;
17024;SDS011;8629;42.496;25.620;2023-09-12T06:06:10;3.60;;;1.90;;
17024;SDS011;8629;42.496;25.620;2023-09-12T06:08:37;2.63;;;1.40;;
17024;SDS011;8629;42.496;25.620;2023-09-12T06:11:05;6.03;;;1.77;;
17024;SDS011;8629;42.496;25.620;2023-09-12T06:13:32;1.60;;;1.50;;
17024;SDS011;8629;42.496;25.620;2023-09-12T06:16:02;3.33;;;1.70;;
17024;SDS011;8629;42.496;25.620;2023-09-12T06:18:29;6.07;;;1.77;;
17024;SDS011;8629;42.496;25.620;2023-09-12T06:20:57;4.30;;;1.37;;
17024;SDS011;8629;42.496;25.620;2023-09-12T06:23:27;2.63;;;1.70;;
17024;SDS011;8629;42.496;25.620;2023-09-12T06:25:54;2.17;;;1.43;;
17024;SDS011;8629;42.496;25.620;2023-09-12T06:28:30;1.87;;;1.60;;
17024;SDS011;8629;42.496;25.620;2023-09-12T06:30:58;3.20;;;1.90;;
17024;SDS011;8629;42.496;25.620;2023-09-12T06:33:25;1.60;;;1.50;;
17024;SDS011;8629;42.496;25.620;2023-09-12T06:35:52;2.57;;;1.73;;
17024;SDS011;8629;42.496;25.620;2023-09-12T06:38:21;2.03;;;1.60;;
17024;SDS011;8629;42.496;25.620;2023-09-12T06:40:48;1.90;;;1.63;;
17024;SDS011;8629;42.496;25.620;2023-09-12T06:43:15;1.67;;;1.57;;
17024;SDS011;8629;42.496;25.620;2023-09-12T06:45:42;4.10;;;1.57;;
17024;SDS011;8629;42.496;25.620;2023-09-12T06:48:08;2.97;;;1.97;;
17024;SDS011;8629;42.496;25.620;2023-09-12T06:50:35;1.60;;;1.50;;
17024;SDS011;8629;42.496;25.620;2023-09-12T06:53:03;3.70;;;2.27;;
17024;SDS011;8629;42.496;25.620;2023-09-12T06:55:32;1.40;;;1.30;;
17024;SDS011;8629;42.496;25.620;2023-09-12T06:58:02;2.00;;;1.90;;
17024;SDS011;8629;42.496;25.620;2023-09-12T07:00:29;2.17;;;1.53;;
17024;SDS011;8629;42.496;25.620;2023-09-12T07:02:56;2.13;;;1.67;;
17024;SDS011;8629;42.496;25.620;2023-09-12T07:05:23;1.83;;;1.40;;
17024;SDS011;8629;42.496;25.620;2023-09-12T07:07:50;2.47;;;1.60;;
17024;SDS011;8629;42.496;25.620;2023-09-12T07:10:17;2.00;;;1.77;;
17024;SDS011;8629;42.496;25.620;2023-09-12T07:12:45;2.60;;;1.67;;
17024;SDS011;8629;42.496;25.620;2023-09-12T07:15:12;1.80;;;1.70;;
17024;SDS011;8629;42.496;25.620;2023-09-12T07:17:39;1.30;;;1.20;;
17024;SDS011;8629;42.496;25.620;2023-09-12T07:20:06;1.30;;;1.20;;
17024;SDS011;8629;42.496;25.620;2023-09-12T07:22:36;4.57;;;1.70;;
17024;SDS011;8629;42.496;25.620;2023-09-12T07:25:04;4.43;;;1.60;;
17024;SDS011;8629;42.496;25.620;2023-09-12T07:27:32;2.40;;;1.43;;
17024;SDS011;8629;42.496;25.620;2023-09-12T07:30:00;2.43;;;2.00;;
17024;SDS011;8629;42.496;25.620;2023-09-12T07:32:27;1.63;;;1.30;;
17024;SDS011;8629;42.496;25.620;2023-09-12T07:34:54;5.23;;;3.00;;
17024;SDS011;8629;42.496;25.620;2023-09-12T07:37:21;2.03;;;1.83;;
17024;SDS011;8629;42.496;25.620;2023-09-12T07:39:48;2.27;;;1.50;;
17024;SDS011;8629;42.496;25.620;2023-09-12T07:42:15;1.93;;;1.63;;
17024;SDS011;8629;42.496;25.620;2023-09-12T07:44:41;2.20;;;1.43;;
17024;SDS011;8629;42.496;25.620;2023-09-12T07:47:10;2.93;;;1.30;;
17024;SDS011;8629;42.496;25.620;2023-09-12T07:49:37;1.70;;;1.60;;
17024;SDS011;8629;42.496;25.620;2023-09-12T07:52:04;2.00;;;1.70;;
17024;SDS011;8629;42.496;25.620;2023-09-12T07:54:31;1.70;;;1.53;;
17024;SDS011;8629;42.496;25.620;2023-09-12T07:56:58;2.10;;;1.83;;
17024;SDS011;8629;42.496;25.620;2023-09-12T07:59:25;1.87;;;1.67;;
17024;SDS011;8629;42.496;25.620;2023-09-12T08:01:51;4.23;;;2.20;;
17024;SDS011;8629;42.496;25.620;2023-09-12T08:04:19;2.50;;;1.90;;
17024;SDS011;8629;42.496;25.620;2023-09-12T08:06:46;3.00;;;1.80;;
17024;SDS011;8629;42.496;25.620;2023-09-12T08:09:13;1.40;;;1.30;;
17024;SDS011;8629;42.496;25.620;2023-09-12T08:11:40;4.67;;;2.03;;
17024;SDS011;8629;42.496;25.620;2023-09-12T08:14:07;1.60;;;1.50;;
17024;SDS011;8629;42.496;25.620;2023-09-12T08:16:33;2.23;;;1.53;;
17024;SDS011;8629;42.496;25.620;2023-09-12T08:19:00;5.70;;;2.03;;
17024;SDS011;8629;42.496;25.620;2023-09-12T08:21:28;2.20;;;2.00;;
17024;SDS011;8629;42.496;25.620;2023-09-12T08:23:55;5.57;;;2.10;;
17024;SDS011;8629;42.496;25.620;2023-09-12T08:26:22;3.27;;;2.00;;
17024;SDS011;8629;42.496;25.620;2023-09-12T08:28:49;3.70;;;1.70;;
17024;SDS011;8629;42.496;25.620;2023-09-12T08:31:16;1.77;;;1.60;;
17024;SDS011;8629;42.496;25.620;2023-09-12T08:33:42;2.13;;;2.00;;
17024;SDS011;8629;42.496;25.620;2023-09-12T08:36:09;2.53;;;2.10;;
17024;SDS011;8629;42.496;25.620;2023-09-12T08:38:37;2.83;;;1.70;;
17024;SDS011;8629;42.496;25.620;2023-09-12T08:41:05;3.63;;;2.07;;
17024;SDS011;8629;42.496;25.620;2023-09-12T08:43:32;5.70;;;2.10;;
17024;SDS011;8629;42.496;25.620;2023-09-12T08:46:01;2.67;;;2.40;;
17024;SDS011;8629;42.496;25.620;2023-09-12T08:48:28;2.07;;;1.87;;
17024;SDS011;8629;42.496;25.620;2023-09-12T08:50:56;3.67;;;2.30;;
17024;SDS011;8629;42.496;25.620;2023-09-12T08:53:24;3.90;;;2.00;;
17024;SDS011;8629;42.496;25.620;2023-09-12T08:55:52;3.10;;;2.67;;
17024;SDS011;8629;42.496;25.620;2023-09-12T08:58:19;7.03;;;2.30;;
17024;SDS011;8629;42.496;25.620;2023-09-12T09:00:47;2.70;;;2.10;;
17024;SDS011;8629;42.496;25.620;2023-09-12T09:03:14;3.83;;;2.30;;
17024;SDS011;8629;42.496;25.620;2023-09-12T09:05:41;2.65;;;2.45;;
17024;SDS011;8629;42.496;25.620;2023-09-12T09:08:09;2.60;;;2.40;;
17024;SDS011;8629;42.496;25.620;2023-09-12T09:10:36;4.32;;;2.40;;
17024;SDS011;8629;42.496;25.620;2023-09-12T09:13:04;3.00;;;2.00;;
17024;SDS011;8629;42.496;25.620;2023-09-12T09:15:31;2.22;;;2.03;;
17024;SDS011;8629;42.496;25.620;2023-09-12T09:18:02;4.13;;;2.27;;
17024;SDS011;8629;42.496;25.620;2023-09-12T09:20:31;8.10;;;2.63;;
17024;SDS011;8629;42.496;25.620;2023-09-12T09:23:00;4.70;;;2.60;;
17024;SDS011;8629;42.496;25.620;2023-09-12T09:25:30;5.82;;;2.22;;
17024;SDS011;8629;42.496;25.620;2023-09-12T09:28:03;4.25;;;3.05;;
17024;SDS011;8629;42.496;25.620;2023-09-12T09:30:38;5.03;;;2.80;;
17024;SDS011;8629;42.496;25.620;2023-09-12T09:33:07;2.58;;;2.22;;
17024;SDS011;8629;42.496;25.620;2023-09-12T09:35:34;3.28;;;2.28;;
17024;SDS011;8629;42.496;25.620;2023-09-12T09:38:02;4.18;;;2.40;;
17024;SDS011;8629;42.496;25.620;2023-09-12T09:40:29;6.88;;;3.13;;
17024;SDS011;8629;42.496;25.620;2023-09-12T09:42:58;5.50;;;2.30;;
17024;SDS011;8629;42.496;25.620;2023-09-12T09:45:27;5.28;;;2.30;;
17024;SDS011;8629;42.496;25.620;2023-09-12T09:47:56;5.10;;;2.45;;
17024;SDS011;8629;42.496;25.620;2023-09-12T09:50:24;2.67;;;2.40;;
17024;SDS011;8629;42.496;25.620;2023-09-12T09:52:52;5.45;;;1.98;;
17024;SDS011;8629;42.496;25.620;2023-09-12T09:55:21;4.25;;;2.20;;
17024;SDS011;8629;42.496;25.620;2023-09-12T09:57:48;5.40;;;2.35;;
17024;SDS011;8629;42.496;25.620;2023-09-12T10:00:17;3.78;;;2.55;;
17024;SDS011;8629;42.496;25.620;2023-09-12T10:02:47;4.05;;;2.25;;
17024;SDS011;8629;42.496;25.620;2023-09-12T10:05:14;3.47;;;2.55;;
17024;SDS011;8629;42.496;25.620;2023-09-12T10:07:42;3.08;;;2.40;;
17024;SDS011;8629;42.496;25.620;2023-09-12T10:10:13;8.70;;;2.88;;
17024;SDS011;8629;42.496;25.620;2023-09-12T10:12:41;4.45;;;3.13;;
17024;SDS011;8629;42.496;25.620;2023-09-12T10:15:12;3.05;;;2.75;;
17024;SDS011;8629;42.496;25.620;2023-09-12T10:17:40;6.15;;;2.92;;
17024;SDS011;8629;42.496;25.620;2023-09-12T10:20:12;3.45;;;2.88;;
17024;SDS011;8629;42.496;25.620;2023-09-12T10:22:43;4.57;;;2.40;;
17024;SDS011;8629;42.496;25.620;2023-09-12T10:25:15;4.97;;;2.92;;
17024;SDS011;8629;42.496;25.620;2023-09-12T10:27:42;3.30;;;2.97;;
17024;SDS011;8629;42.496;25.620;2023-09-12T10:30:09;4.57;;;3.13;;
17024;SDS011;8629;42.496;25.620;2023-09-12T10:32:36;3.42;;;2.40;;
17024;SDS011;8629;42.496;25.620;2023-09-12T10:35:03;5.05;;;2.75;;
17024;SDS011;8629;42.496;25.620;2023-09-12T10:37:34;4.07;;;2.47;;
17024;SDS011;8629;42.496;25.620;2023-09-12T10:40:02;3.25;;;2.90;;
17024;SDS011;8629;42.496;25.620;2023-09-12T10:42:31;4.93;;;3.60;;
17024;SDS011;8629;42.496;25.620;2023-09-12T10:44:59;6.75;;;2.80;;
17024;SDS011;8629;42.496;25.620;2023-09-12T10:47:28;7.95;;;2.63;;
17024;SDS011;8629;42.496;25.620;2023-09-12T10:49:55;9.07;;;2.50;;
17024;SDS011;8629;42.496;25.620;2023-09-12T10:52:25;8.93;;;4.85;;
17024;SDS011;8629;42.496;25.620;2023-09-12T10:54:53;3.20;;;2.92;;
17024;SDS011;8629;42.496;25.620;2023-09-12T10:57:20;3.22;;;2.30;;
17024;SDS011;8629;42.496;25.620;2023-09-12T11:00:09;4.53;;;2.47;;
17024;SDS011;8629;42.496;25.620;2023-09-12T11:02:37;5.80;;;2.60;;
17024;SDS011;8629;42.496;25.620;2023-09-12T11:08:04;5.32;;;2.90;;
17024;SDS011;8629;42.496;25.620;2023-09-12T11:10:33;5.32;;;2.97;;
17024;SDS011;8629;42.496;25.620;2023-09-12T11:13:02;3.80;;;3.05;;
17024;SDS011;8629;42.496;25.620;2023-09-12T11:15:29;6.50;;;2.35;;
17024;SDS011;8629;42.496;25.620;2023-09-12T11:18:00;5.82;;;3.22;;
17024;SDS011;8629;42.496;25.620;2023-09-12T11:23:19;5.10;;;2.88;;
17024;SDS011;8629;42.496;25.620;2023-09-12T11:25:48;5.20;;;2.38;;
17024;SDS011;8629;42.496;25.620;2023-09-12T11:28:15;6.45;;;3.05;;
17024;SDS011;8629;42.496;25.620;2023-09-12T11:30:54;2.45;;;2.25;;
17024;SDS011;8629;42.496;25.620;2023-09-12T11:33:23;4.07;;;2.60;;
17024;SDS011;8629;42.496;25.620;2023-09-12T11:35:52;3.60;;;2.28;;
17024;SDS011;8629;42.496;25.620;2023-09-12T11:38:25;4.63;;;2.95;;
17024;SDS011;8629;42.496;25.620;2023-09-12T11:40:55;3.38;;;2.95;;
17024;SDS011;8629;42.496;25.620;2023-09-12T11:43:23;4.60;;;2.67;;
17024;SDS011;8629;42.496;25.620;2023-09-12T11:45:50;5.43;;;2.78;;
17024;SDS011;8629;42.496;25.620;2023-09-12T11:48:17;6.97;;;2.35;;
17024;SDS011;8629;42.496;25.620;2023-09-12T11:50:49;4.00;;;2.60;;
17024;SDS011;8629;42.496;25.620;2023-09-12T11:53:18;3.17;;;2.83;;
17024;SDS011;8629;42.496;25.620;2023-09-12T11:55:47;8.60;;;3.85;;
17024;SDS011;8629;42.496;25.620;2023-09-12T11:58:18;8.88;;;3.83;;
17024;SDS011;8629;42.496;25.620;2023-09-12T12:00:45;4.15;;;3.13;;
17024;SDS011;8629;42.496;25.620;2023-09-12T12:03:13;4.30;;;2.88;;
17024;SDS011;8629;42.496;25.620;2023-09-12T12:05:40;4.25;;;2.80;;
17024;SDS011;8629;42.496;25.620;2023-09-12T12:08:07;5.20;;;3.05;;
17024;SDS011;8629;42.496;25.620;2023-09-12T12:10:34;5.38;;;3.20;;
17024;SDS011;8629;42.496;25.620;2023-09-12T12:13:01;5.95;;;2.97;;
17024;SDS011;8629;42.496;25.620;2023-09-12T12:15:29;3.33;;;3.00;;
17024;SDS011;8629;42.496;25.620;2023-09-12T12:17:56;5.18;;;2.95;;
17024;SDS011;8629;42.496;25.620;2023-09-12T12:20:23;2.70;;;2.50;;
17024;SDS011;8629;42.496;25.620;2023-09-12T12:22:49;2.85;;;2.65;;
17024;SDS011;8629;42.496;25.620;2023-09-12T12:25:17;3.38;;;3.08;;
17024;SDS011;8629;42.496;25.620;2023-09-12T12:27:44;3.80;;;2.83;;
17024;SDS011;8629;42.496;25.620;2023-09-12T12:30:12;4.00;;;2.80;;
17024;SDS011;8629;42.496;25.620;2023-09-12T12:32:40;3.53;;;2.97;;
17024;SDS011;8629;42.496;25.620;2023-09-12T12:35:08;3.40;;;3.10;;
17024;SDS011;8629;42.496;25.620;2023-09-12T12:37:35;7.57;;;3.63;;
17024;SDS011;8629;42.496;25.620;2023-09-12T12:40:03;3.30;;;3.00;;
17024;SDS011;8629;42.496;25.620;2023-09-12T12:42:32;9.65;;;3.42;;
17024;SDS011;8629;42.496;25.620;2023-09-12T12:45:02;5.28;;;2.88;;
17024;SDS011;8629;42.496;25.620;2023-09-12T12:47:32;4.93;;;3.20;;
17024;SDS011;8629;42.496;25.620;2023-09-12T12:50:01;3.55;;;2.70;;
17024;SDS011;8629;42.496;25.620;2023-09-12T12:52:28;4.13;;;2.83;;
17024;SDS011;8629;42.496;25.620;2023-09-12T12:55:03;6.95;;;3.38;;
17024;SDS011;8629;42.496;25.620;2023-09-12T12:57:30;8.77;;;3.05;;
17024;SDS011;8629;42.496;25.620;2023-09-12T12:59:58;3.85;;;2.70;;
17024;SDS011;8629;42.496;25.620;2023-09-12T13:02:24;3.35;;;2.67;;
17024;SDS011;8629;42.496;25.620;2023-09-12T13:04:51;6.18;;;3.15;;
17024;SDS011;8629;42.496;25.620;2023-09-12T13:07:19;4.65;;;2.42;;
17024;SDS011;8629;42.496;25.620;2023-09-12T13:09:46;7.88;;;3.08;;
17024;SDS011;8629;42.496;25.620;2023-09-12T13:12:13;5.90;;;3.50;;
17024;SDS011;8629;42.496;25.620;2023-09-12T13:14:42;5.88;;;2.85;;
17024;SDS011;8629;42.496;25.620;2023-09-12T13:17:09;4.05;;;2.80;;
17024;SDS011;8629;42.496;25.620;2023-09-12T13:19:36;3.63;;;3.03;;
17024;SDS011;8629;42.496;25.620;2023-09-12T13:22:03;4.43;;;3.22;;
17024;SDS011;8629;42.496;25.620;2023-09-12T13:24:31;6.00;;;3.60;;
17024;SDS011;8629;42.496;25.620;2023-09-12T13:26:59;5.55;;;2.40;;
17024;SDS011;8629;42.496;25.620;2023-09-12T13:29:26;5.50;;;3.25;;
17024;SDS011;8629;42.496;25.620;2023-09-12T13:31:53;9.85;;;3.97;;
17024;SDS011;8629;42.496;25.620;2023-09-12T13:34:19;4.90;;;2.50;;
17024;SDS011;8629;42.496;25.620;2023-09-12T13:36:46;4.25;;;2.47;;
17024;SDS011;8629;42.496;25.620;2023-09-12T13:39:13;3.55;;;2.65;;
17024;SDS011;8629;42.496;25.620;2023-09-12T13:41:43;5.47;;;2.70;;
17024;SDS011;8629;42.496;25.620;2023-09-12T13:44:11;4.85;;;2.92;;
17024;SDS011;8629;42.496;25.620;2023-09-12T13:46:37;6.22;;;3.78;;
17024;SDS011;8629;42.496;25.620;2023-09-12T13:49:04;3.45;;;3.13;;
17024;SDS011;8629;42.496;25.620;2023-09-12T13:51:31;5.38;;;2.95;;
17024;SDS011;8629;42.496;25.620;2023-09-12T13:53:57;5.45;;;2.92;;
17024;SDS011;8629;42.496;25.620;2023-09-12T13:56:24;2.83;;;2.47;;
17024;SDS011;8629;42.496;25.620;2023-09-12T13:58:53;5.10;;;3.15;;
17024;SDS011;8629;42.496;25.620;2023-09-12T14:01:20;6.05;;;3.15;;
17024;SDS011;8629;42.496;25.620;2023-09-12T14:03:48;8.88;;;2.67;;
17024;SDS011;8629;42.496;25.620;2023-09-12T14:06:14;4.70;;;2.88;;
17024;SDS011;8629;42.496;25.620;2023-09-12T14:08:41;3.63;;;2.80;;
17024;SDS011;8629;42.496;25.620;2023-09-12T14:11:08;3.22;;;2.63;;
17024;SDS011;8629;42.496;25.620;2023-09-12T14:13:35;4.28;;;2.47;;
17024;SDS011;8629;42.496;25.620;2023-09-12T14:16:03;6.35;;;2.83;;
17024;SDS011;8629;42.496;25.620;2023-09-12T14:18:30;3.35;;;2.70;;
17024;SDS011;8629;42.496;25.620;2023-09-12T14:20:57;5.82;;;2.97;;
17024;SDS011;8629;42.496;25.620;2023-09-12T14:23:24;3.40;;;2.60;;
17024;SDS011;8629;42.496;25.620;2023-09-12T14:25:50;6.25;;;3.05;;
17024;SDS011;8629;42.496;25.620;2023-09-12T14:28:17;6.13;;;3.42;;
17024;SDS011;8629;42.496;25.620;2023-09-12T14:30:44;8.20;;;2.85;;
17024;SDS011;8629;42.496;25.620;2023-09-12T14:33:13;7.53;;;2.38;;
17024;SDS011;8629;42.496;25.620;2023-09-12T14:35:40;5.25;;;3.33;;
17024;SDS011;8629;42.496;25.620;2023-09-12T14:38:07;5.68;;;2.80;;
17024;SDS011;8629;42.496;25.620;2023-09-12T14:40:34;3.60;;;2.95;;
17024;SDS011;8629;42.496;25.620;2023-09-12T14:43:01;6.57;;;3.45;;
17024;SDS011;8629;42.496;25.620;2023-09-12T14:45:28;4.00;;;2.90;;
17024;SDS011;8629;42.496;25.620;2023-09-12T14:47:55;6.63;;;3.60;;
17024;SDS011;8629;42.496;25.620;2023-09-12T14:50:24;5.63;;;3.13;;
17024;SDS011;8629;42.496;25.620;2023-09-12T14:52:54;6.35;;;2.60;;
17024;SDS011;8629;42.496;25.620;2023-09-12T14:55:21;5.07;;;2.88;;
17024;SDS011;8629;42.496;25.620;2023-09-12T14:57:48;6.30;;;3.40;;